Terminal Aerodrome Forecast
Issued by NWS Dallas/Fort Worth, TX

Current Version | Previous Version | Text Only | Print | Product List | Glossary On
Versions: 1 2 3 4 5 6 7 8 9 10 11 12 13 14 15 16 17 18 19 20 21 22 23 24 25 26 27 28
704
FTUS44 KFWD 291139
TAFDFW
TAF
KDFW 291139Z 2912/3018 17010KT P6SM SCT015 BKN035
      TEMPO 2912/2916 6SM BR BKN008
     FM291700 17016KT P6SM VCSH SCT025 BKN040
     FM292000 18017KT P6SM VCTS SCT030 BKN050CB
      TEMPO 2921/2924 3SM TSRA BKN030CB
     FM300100 18016KT P6SM SCT150
     FM300900 23009KT P6SM SCT200
     FM301400 31009KT P6SM SKC=

USA.gov is the U.S. government's official web portal to all federal, state and local government web resources and services.